Terminal Aerodrome Forecast
Issued by NWS

Home | Current Version | Previous Version | Graphics & Text | Print | Product List | Glossary On
Versions: 1 2 3 4 5 6 7 8 9 10 11 12 13 14 15 16 17 18 19 20 21 22 23 24 25 26 27 28 29 30 31 32 33 34 35 36
000
FTUS43 KLOT 310917 AAA
TAFORD
TAF AMD
KORD 310917Z 3109/0112 30009KT P6SM SKC
     FM311100 01012KT P6SM BKN008
     FM311500 35011KT P6SM BKN020
     FM311900 30009KT P6SM SCT040
     FM010000 27005KT P6SM SKC
     FM010900 02006KT P6SM SCT250=

USA.gov is the U.S. government's official web portal to all federal, state and local government web resources and services.